createdAt,value
2018-06-17T00:00:25.042Z,7.90
2018-06-17T00:01:25.064Z,8.10
2018-06-17T00:02:25.035Z,8.30
2018-06-17T00:03:25.039Z,8.60
2018-06-17T00:04:25.034Z,8.30
2018-06-17T00:05:25.023Z,7.80
2018-06-17T00:06:25.030Z,7.70
2018-06-17T00:07:25.060Z,8.00
2018-06-17T00:08:25.015Z,8.00
2018-06-17T00:09:25.042Z,7.90
2018-06-17T00:10:25.023Z,7.30
2018-06-17T00:11:25.002Z,8.10
2018-06-17T00:12:25.024Z,7.30
2018-06-17T00:13:24.996Z,8.00
2018-06-17T00:14:24.990Z,8.00
2018-06-17T00:15:24.989Z,7.80
2018-06-17T00:16:25.111Z,7.60
2018-06-17T00:17:25.133Z,8.40
2018-06-17T00:18:25.124Z,7.80
2018-06-17T00:19:24.977Z,7.60
2018-06-17T00:20:25.080Z,7.30
2018-06-17T00:21:25.006Z,8.00
2018-06-17T00:22:25.002Z,7.90
2018-06-17T00:23:24.963Z,7.90
2018-06-17T00:24:24.965Z,8.10
2018-06-17T00:25:24.953Z,7.70
2018-06-17T00:26:24.961Z,8.30
2018-06-17T00:27:24.951Z,9.00
2018-06-17T00:28:24.950Z,8.80
2018-06-17T00:29:24.944Z,7.90
2018-06-17T00:30:24.973Z,7.50
2018-06-17T00:31:24.965Z,7.10
2018-06-17T00:32:24.955Z,8.20
2018-06-17T00:33:24.968Z,7.10
2018-06-17T00:34:24.922Z,7.20
2018-06-17T00:35:25.622Z,7.50
2018-06-17T00:36:24.986Z,7.30
2018-06-17T00:37:24.915Z,7.60
2018-06-17T00:38:24.905Z,6.70
2018-06-17T00:39:24.925Z,7.10
2018-06-17T00:40:24.906Z,7.10
2018-06-17T00:41:25.023Z,7.30
2018-06-17T00:42:24.924Z,7.20
2018-06-17T00:43:24.933Z,7.30
2018-06-17T00:44:24.952Z,7.10
2018-06-17T00:45:24.921Z,7.20
2018-06-17T00:46:24.888Z,7.40
2018-06-17T00:47:24.886Z,7.40
2018-06-17T00:48:24.970Z,7.30
2018-06-17T00:49:24.894Z,7.30
2018-06-17T00:50:24.876Z,6.90
2018-06-17T00:51:24.921Z,7.00
2018-06-17T00:52:24.883Z,6.80
2018-06-17T00:53:24.863Z,7.00
2018-06-17T00:54:24.858Z,6.80
2018-06-17T00:55:24.851Z,6.70
2018-06-17T00:56:24.912Z,7.20
2018-06-17T00:57:24.866Z,7.00
2018-06-17T00:58:24.890Z,6.80
2018-06-17T00:59:24.866Z,6.80
2018-06-17T01:00:24.836Z,6.60
2018-06-17T01:01:24.847Z,6.40
2018-06-17T01:02:24.834Z,6.80
2018-06-17T01:03:24.841Z,6.60
2018-06-17T01:04:24.821Z,6.20
2018-06-17T01:05:24.828Z,6.10
2018-06-17T01:06:24.828Z,6.50
2018-06-17T01:07:24.851Z,6.70
2018-06-17T01:08:24.811Z,6.20
2018-06-17T01:09:24.859Z,6.30
2018-06-17T01:10:24.814Z,6.20
2018-06-17T01:11:24.804Z,6.20
2018-06-17T01:12:24.799Z,6.60
2018-06-17T01:13:24.799Z,6.20
2018-06-17T01:14:24.803Z,6.30
2018-06-17T01:15:24.789Z,6.60
2018-06-17T01:16:24.804Z,6.30
2018-06-17T01:17:24.873Z,6.20
2018-06-17T01:18:24.896Z,6.30
2018-06-17T01:19:24.950Z,6.20
2018-06-17T01:20:24.795Z,6.50
2018-06-17T01:21:24.769Z,6.10
2018-06-17T01:22:24.781Z,6.30
2018-06-17T01:23:24.786Z,6.30
2018-06-17T01:24:24.764Z,6.40
2018-06-17T01:25:24.756Z,6.20
2018-06-17T01:26:24.792Z,6.10
2018-06-17T01:27:24.747Z,6.70
2018-06-17T01:28:24.780Z,6.70
2018-06-17T01:29:24.790Z,6.70
2018-06-17T01:30:24.735Z,6.40
2018-06-17T02:04:03.200Z,8.60
2018-06-17T02:05:03.171Z,11.00
2018-06-17T02:06:03.158Z,10.70
2018-06-17T02:07:03.150Z,10.80
2018-06-17T02:08:03.144Z,11.10
2018-06-17T02:09:03.295Z,10.90
2018-06-17T02:10:03.124Z,10.30
2018-06-17T02:11:03.116Z,10.90
2018-06-17T02:12:03.114Z,10.90
2018-06-17T02:13:03.108Z,11.20
2018-06-17T02:14:03.101Z,11.60
2018-06-17T02:15:03.094Z,11.20
2018-06-17T02:16:03.086Z,11.00
2018-06-17T02:17:03.102Z,10.80
2018-06-17T02:18:03.088Z,9.90
2018-06-17T02:19:03.070Z,11.00
2018-06-17T02:20:03.075Z,10.30
2018-06-17T02:21:03.064Z,10.00
2018-06-17T02:22:03.058Z,10.00
2018-06-17T02:23:03.088Z,10.20
2018-06-17T02:24:03.057Z,9.70
2018-06-17T02:25:03.067Z,9.70
2018-06-17T02:26:03.052Z,9.90
2018-06-17T02:27:03.047Z,9.70
2018-06-17T02:28:03.215Z,9.50
2018-06-17T02:29:03.223Z,10.00
2018-06-17T02:30:03.026Z,9.20
2018-06-17T02:31:03.016Z,9.40
2018-06-17T02:32:03.028Z,10.10
2018-06-17T02:33:03.011Z,9.90
2018-06-17T02:34:03.039Z,9.60
2018-06-17T02:35:03.019Z,9.90
2018-06-17T02:36:02.996Z,9.60
2018-06-17T02:37:02.997Z,9.00
2018-06-17T02:38:02.983Z,10.00
2018-06-17T02:39:03.077Z,10.40
2018-06-17T02:40:02.981Z,9.40
2018-06-17T02:41:02.978Z,9.80
2018-06-17T02:42:02.975Z,9.40
2018-06-17T02:43:02.962Z,9.60
2018-06-17T02:44:02.963Z,9.70
2018-06-17T02:45:02.973Z,9.90
2018-06-17T02:46:02.958Z,10.80
2018-06-17T02:47:02.953Z,10.50
2018-06-17T02:48:03.000Z,10.60
2018-06-17T02:49:02.954Z,10.40
2018-06-17T02:50:02.944Z,10.50
2018-06-17T02:51:02.934Z,10.90
2018-06-17T02:52:02.951Z,10.60
2018-06-17T02:53:02.928Z,10.60
2018-06-17T02:54:02.924Z,11.60
2018-06-17T02:55:02.925Z,11.10
2018-06-17T02:56:02.914Z,11.40
2018-06-17T02:57:02.913Z,10.90
2018-06-17T02:58:02.933Z,11.70
2018-06-17T02:59:02.958Z,11.10
2018-06-17T03:00:02.904Z,11.30
2018-06-17T03:01:02.944Z,11.70
2018-06-17T03:02:02.908Z,12.00
2018-06-17T03:03:02.888Z,11.60
2018-06-17T03:04:02.886Z,11.80
2018-06-17T03:05:02.881Z,11.70
2018-06-17T03:06:02.882Z,11.70
2018-06-17T03:07:02.873Z,11.50
2018-06-17T03:08:02.872Z,11.70
2018-06-17T03:09:02.877Z,11.70
2018-06-17T03:10:02.863Z,11.90
2018-06-17T03:11:02.866Z,12.40
2018-06-17T03:12:02.885Z,12.20
2018-06-17T03:13:02.855Z,12.10
2018-06-17T03:14:02.845Z,12.00
2018-06-17T03:15:02.846Z,11.80
2018-06-17T03:16:02.839Z,11.90
2018-06-17T03:17:02.830Z,11.70
2018-06-17T03:18:02.829Z,12.90
2018-06-17T03:19:02.827Z,12.10
2018-06-17T03:20:02.823Z,11.80
2018-06-17T03:21:02.819Z,12.30
2018-06-17T03:22:02.806Z,11.90
2018-06-17T03:23:02.815Z,11.20
2018-06-17T03:24:02.805Z,11.90
2018-06-17T03:25:02.810Z,11.80
2018-06-17T03:26:02.852Z,11.70
2018-06-17T03:27:02.783Z,12.10
2018-06-17T03:28:02.991Z,11.80
2018-06-17T03:29:02.864Z,11.70
2018-06-17T03:30:02.792Z,11.70
2018-06-17T03:31:02.781Z,11.40
2018-06-17T03:32:02.772Z,12.10
2018-06-17T03:33:02.772Z,12.10
2018-06-17T03:34:02.764Z,12.00
2018-06-17T03:35:02.764Z,12.20
2018-06-17T03:36:02.814Z,11.90
2018-06-17T03:37:02.753Z,12.60
2018-06-17T03:38:02.755Z,12.20
2018-06-17T03:39:02.876Z,12.00
2018-06-17T03:40:02.749Z,11.80
2018-06-17T03:41:02.746Z,12.00
2018-06-17T03:42:02.754Z,12.00
2018-06-17T03:43:02.731Z,11.80
2018-06-17T03:44:02.726Z,12.00
2018-06-17T03:45:02.729Z,12.30
2018-06-17T03:46:02.716Z,11.70
2018-06-17T03:47:02.732Z,11.90
2018-06-17T03:48:02.721Z,12.00
2018-06-17T03:49:02.712Z,12.00
2018-06-17T03:50:02.708Z,11.70
2018-06-17T03:51:02.711Z,11.10
2018-06-17T03:52:02.696Z,12.00
2018-06-17T03:53:02.682Z,11.40
2018-06-17T03:54:02.680Z,11.30
2018-06-17T03:55:02.703Z,11.70
2018-06-17T03:56:02.683Z,11.50
2018-06-17T03:57:02.691Z,10.80
2018-06-17T03:58:02.789Z,11.50
2018-06-17T03:59:02.676Z,11.60
2018-06-17T04:00:02.668Z,10.90
2018-06-17T04:01:02.674Z,10.90
2018-06-17T04:02:02.654Z,10.40
2018-06-17T04:03:02.655Z,10.70
2018-06-17T04:04:02.733Z,10.60
2018-06-17T04:05:02.655Z,10.70
2018-06-17T04:06:02.835Z,10.70
2018-06-17T04:07:02.660Z,10.30
2018-06-17T04:08:02.643Z,10.20
2018-06-17T04:09:02.851Z,10.50
2018-06-17T04:10:02.630Z,10.80
2018-06-17T04:11:02.630Z,9.90
2018-06-17T04:12:02.634Z,9.50
2018-06-17T04:13:02.626Z,9.50
2018-06-17T04:14:02.632Z,9.80
2018-06-17T04:15:02.620Z,9.40
2018-06-17T04:16:02.667Z,9.80
2018-06-17T04:17:02.622Z,10.30
2018-06-17T04:18:02.608Z,10.20
2018-06-17T04:19:02.593Z,9.50
2018-06-17T04:20:02.607Z,9.80
2018-06-17T04:21:02.597Z,9.60
2018-06-17T04:22:02.599Z,9.80
2018-06-17T04:23:02.601Z,9.40
2018-06-17T04:24:02.592Z,9.20
2018-06-17T04:25:02.592Z,9.30
2018-06-17T04:26:02.588Z,9.10
2018-06-17T04:27:02.584Z,9.30
2018-06-17T04:28:02.655Z,9.90
2018-06-17T04:29:02.776Z,9.10
2018-06-17T04:30:02.580Z,13.00
2018-06-17T04:31:02.579Z,10.40
2018-06-17T04:32:02.567Z,9.20
2018-06-17T04:33:02.570Z,9.20
2018-06-17T04:34:02.575Z,8.80
2018-06-17T04:35:02.562Z,8.60
2018-06-17T04:36:02.584Z,8.70
2018-06-17T04:37:02.572Z,8.80
2018-06-17T04:38:02.612Z,9.20
2018-06-17T04:39:02.631Z,9.30
2018-06-17T04:40:02.553Z,9.20
2018-06-17T04:41:02.549Z,9.20
2018-06-17T04:42:02.542Z,9.20
2018-06-17T04:43:02.548Z,9.40
2018-06-17T04:44:02.537Z,9.20
2018-06-17T04:45:02.544Z,9.00
2018-06-17T04:46:02.538Z,8.60
2018-06-17T04:47:02.547Z,8.50
2018-06-17T04:48:02.538Z,8.10
2018-06-17T04:49:02.528Z,7.80
2018-06-17T04:50:02.525Z,7.70
2018-06-17T04:51:02.524Z,7.90
2018-06-17T04:52:02.524Z,8.10
2018-06-17T04:53:02.558Z,8.00
2018-06-17T04:54:02.514Z,7.70
2018-06-17T04:55:02.526Z,8.30
2018-06-17T04:56:02.517Z,7.90
2018-06-17T04:57:02.509Z,8.70
2018-06-17T04:58:02.556Z,8.50
2018-06-17T04:59:02.529Z,9.70
2018-06-17T05:00:02.566Z,9.80
2018-06-17T05:01:02.504Z,10.30
2018-06-17T05:02:02.498Z,9.50
2018-06-17T05:03:02.495Z,11.00
2018-06-17T05:04:02.492Z,9.40
2018-06-17T05:05:02.497Z,8.90
2018-06-17T05:06:02.512Z,9.00
2018-06-17T05:07:02.500Z,8.40
2018-06-17T05:08:02.485Z,7.80
2018-06-17T05:09:02.629Z,7.60
2018-06-17T05:10:02.489Z,7.50
2018-06-17T05:11:02.488Z,7.80
2018-06-17T05:12:02.502Z,7.40
2018-06-17T05:13:02.480Z,7.00
2018-06-17T05:14:02.476Z,6.80
2018-06-17T05:15:02.489Z,7.60
2018-06-17T05:16:02.478Z,7.50
2018-06-17T05:17:02.509Z,7.20
2018-06-17T05:18:02.475Z,7.50
2018-06-17T05:19:02.471Z,7.50
2018-06-17T05:20:02.471Z,7.10
2018-06-17T05:21:02.459Z,6.80
2018-06-17T05:22:02.465Z,7.50
2018-06-17T05:23:02.493Z,7.40
2018-06-17T05:24:02.547Z,6.90
2018-06-17T05:25:02.463Z,7.00
2018-06-17T05:26:02.455Z,6.70
2018-06-17T05:27:02.461Z,6.50
2018-06-17T05:28:02.547Z,6.30
2018-06-17T05:29:03.382Z,6.40
2018-06-17T05:30:02.455Z,5.80
2018-06-17T05:31:02.462Z,7.00
2018-06-17T05:32:02.458Z,6.60
2018-06-17T05:33:02.466Z,6.10
2018-06-17T05:34:02.470Z,6.40
2018-06-17T05:35:02.454Z,5.50
2018-06-17T05:36:02.454Z,5.60
2018-06-17T05:37:02.457Z,5.30
2018-06-17T05:38:02.451Z,5.50
2018-06-17T05:39:02.444Z,5.20
2018-06-17T05:40:02.628Z,5.50
2018-06-17T05:41:02.447Z,5.40
2018-06-17T05:42:02.440Z,5.60
2018-06-17T05:43:02.445Z,4.80
2018-06-17T05:44:02.448Z,4.90
2018-06-17T05:45:02.482Z,4.90
2018-06-17T05:46:02.455Z,4.80
2018-06-17T05:47:02.471Z,4.80
2018-06-17T05:48:02.445Z,4.90
2018-06-17T05:49:02.575Z,5.50
2018-06-17T05:50:02.462Z,4.70
2018-06-17T05:51:02.442Z,4.80
2018-06-17T05:52:02.489Z,4.20
2018-06-17T05:53:02.556Z,4.70
2018-06-17T05:54:02.456Z,4.50
2018-06-17T05:55:02.445Z,5.60
2018-06-17T05:56:02.490Z,4.70
2018-06-17T05:57:02.459Z,4.10
2018-06-17T05:58:02.561Z,4.20
2018-06-17T05:59:02.558Z,4.50
2018-06-17T06:00:02.444Z,4.20
2018-06-17T06:01:02.444Z,4.00
2018-06-17T06:02:02.448Z,4.50
2018-06-17T06:03:02.449Z,4.30
2018-06-17T06:04:02.606Z,3.80
2018-06-17T06:05:02.534Z,4.10
2018-06-17T06:06:02.441Z,4.10
2018-06-17T06:07:02.452Z,4.30
2018-06-17T06:08:02.443Z,3.80
2018-06-17T06:09:02.447Z,3.90
2018-06-17T06:10:02.488Z,4.90
2018-06-17T06:11:02.459Z,4.30
2018-06-17T06:12:02.477Z,4.20
2018-06-17T06:13:02.486Z,4.00
2018-06-17T06:14:02.458Z,4.40
2018-06-17T06:16:02.462Z,4.10
2018-06-17T06:17:02.661Z,4.20
2018-06-17T06:18:02.459Z,4.00
2018-06-17T06:19:03.273Z,3.60
2018-06-17T06:20:02.471Z,3.90
2018-06-17T06:21:02.498Z,3.80
2018-06-17T06:22:02.477Z,3.70
2018-06-17T06:23:02.491Z,3.40
2018-06-17T06:24:02.486Z,4.10
2018-06-17T06:25:02.507Z,3.60
2018-06-17T06:26:02.507Z,3.60
2018-06-17T06:27:02.507Z,3.70
2018-06-17T06:28:02.529Z,3.80
2018-06-17T06:29:02.528Z,3.20
2018-06-17T06:30:02.525Z,3.50
2018-06-17T06:31:02.548Z,3.10
2018-06-17T06:32:02.521Z,4.80
2018-06-17T06:33:02.519Z,3.50
2018-06-17T06:34:02.521Z,4.10
2018-06-17T06:35:02.538Z,4.10
2018-06-17T06:36:02.553Z,3.60
2018-06-17T06:37:02.538Z,3.40
2018-06-17T06:38:02.597Z,3.30
2018-06-17T06:39:02.545Z,4.10
2018-06-17T06:40:02.609Z,3.60
2018-06-17T06:41:03.234Z,3.20
2018-06-17T06:42:02.563Z,3.60
2018-06-17T06:43:02.623Z,3.80
2018-06-17T06:44:02.566Z,3.30
2018-06-17T06:45:02.568Z,3.70
2018-06-17T06:46:02.577Z,3.60
2018-06-17T06:47:03.257Z,4.20
2018-06-17T06:48:02.582Z,4.70
2018-06-17T06:49:02.665Z,3.10
2018-06-17T06:50:02.630Z,3.50
2018-06-17T06:51:02.649Z,3.40
2018-06-17T06:52:02.599Z,3.10
2018-06-17T06:53:02.691Z,3.40
2018-06-17T06:54:02.615Z,3.40
2018-06-17T06:55:02.614Z,3.60
2018-06-17T06:56:02.618Z,3.20
2018-06-17T06:57:02.618Z,2.90
2018-06-17T06:58:02.624Z,2.90
2018-06-17T06:59:02.631Z,3.50
2018-06-17T07:00:02.634Z,4.10
2018-06-17T07:01:02.648Z,3.30
2018-06-17T07:02:02.673Z,3.10
2018-06-17T07:03:02.643Z,3.00
2018-06-17T07:04:02.670Z,3.00
2018-06-17T07:05:02.812Z,3.10
2018-06-17T07:06:03.395Z,3.50
2018-06-17T07:07:03.278Z,3.70
2018-06-17T07:08:03.256Z,3.00
2018-06-17T07:09:02.676Z,3.00
2018-06-17T07:10:02.796Z,3.60
2018-06-17T07:11:02.728Z,2.90
2018-06-17T07:12:02.859Z,2.70
2018-06-17T07:13:02.772Z,3.00
2018-06-17T07:14:02.842Z,2.90
2018-06-17T07:15:02.789Z,3.10
2018-06-17T07:16:02.851Z,3.60
2018-06-17T07:17:02.733Z,2.50
2018-06-17T07:18:02.730Z,2.80
2018-06-17T07:19:02.750Z,3.00
2018-06-17T07:20:02.743Z,3.10
2018-06-17T07:21:02.757Z,4.60
2018-06-17T07:23:30.565Z,2.60
2018-06-17T08:24:34.111Z,2.60
2018-06-17T08:25:59.746Z,2.40
2018-06-17T14:04:19.356Z,2.40
2018-06-17T14:05:39.944Z,2.60
2018-06-17T16:26:38.350Z,2.60
2018-06-17T22:12:47.321Z,2.60
